This is the latest recevied weather packets stored in our database for station/object HB9FRQ-10. If no packets are shown the sender has not sent any weather packets the latest 10 day(s).
| Time | Temp. | Humidity | Pressure | Rain* | Wind** | Luminosity | Snow |
|---|---|---|---|---|---|---|---|
| 1777161241 | 7.78° C | 86% | 1021.4 hPa | - | - | - | - |
| 1777160341 | 8.33° C | 83% | 1021.2 hPa | - | - | - | - |
| 1777159441 | 8.89° C | 80% | 1021.3 hPa | - | - | - | - |
| 1777158541 | 8.89° C | 77% | 1021.1 hPa | - | - | - | - |
| 1777157641 | 9.44° C | 71% | 1021.1 hPa | - | - | - | - |
| 1777156741 | 9.44° C | 72% | 1021 hPa | - | - | - | - |
| 1777155841 | 9.44° C | 70% | 1021 hPa | - | - | - | - |
| 1777154941 | 10° C | 70% | 1021 hPa | - | - | - | - |
| 1777154041 | 10° C | 67% | 1020.8 hPa | - | - | - | - |
| 1777153141 | 10.56° C | 67% | 1020.7 hPa | - | - | - | - |
| 1777152241 | 11.11° C | 64% | 1020.5 hPa | - | - | - | - |
| 1777151341 | 11.67° C | 63% | 1020.4 hPa | - | - | - | - |
| 1777150440 | 11.67° C | 64% | 1020.3 hPa | - | - | - | - |
| 1777149540 | 12.22° C | 61% | 1020.1 hPa | - | - | - | - |
| 1777148640 | 12.78° C | 58% | 1019.9 hPa | - | - | - | - |
| 1777147740 | 12.78° C | 59% | 1019.8 hPa | - | - | - | - |
| 1777146840 | 13.33° C | 58% | 1019.7 hPa | - | - | - | - |
| 1777145940 | 13.89° C | 54% | 1019.4 hPa | - | - | - | - |
| 1777145040 | 14.44° C | 53% | 1019.3 hPa | - | - | - | - |
| 1777144140 | 15° C | 51% | 1019 hPa | - | - | - | - |
| 1777143240 | 15.56° C | 49% | 1018.7 hPa | - | - | - | - |
| 1777142340 | 16.67° C | 47% | 1018.5 hPa | - | - | - | - |
| 1777141440 | 17.78° C | 45% | 1018.5 hPa | - | - | - | - |
| 1777140540 | 19.44° C | 38% | 1018.3 hPa | - | - | - | - |
| 1777139639 | 21.11° C | 33% | 1018.1 hPa | - | - | - | - |
* Rain since midnight (hover to see other rain measurements)
** Current wind speed in m/s (hover to see current wind gust speed)